createdAt,value
2023-01-29T00:01:17.790Z,17.48
2023-01-29T00:04:42.698Z,19.38
2023-01-29T00:08:04.835Z,20.55
2023-01-29T00:11:26.785Z,20.38
2023-01-29T00:14:49.325Z,16.10
2023-01-29T00:18:11.311Z,17.83
2023-01-29T00:21:33.473Z,16.02
2023-01-29T00:24:55.492Z,21.42
2023-01-29T00:28:17.613Z,23.95
2023-01-29T00:31:39.901Z,14.23
2023-01-29T00:35:02.548Z,14.55
2023-01-29T00:38:24.495Z,17.77
2023-01-29T00:42:06.681Z,22.33
2023-01-29T00:45:28.622Z,14.73
2023-01-29T00:48:50.589Z,18.80
2023-01-29T00:52:24.560Z,24.83
2023-01-29T00:55:46.564Z,18.00
2023-01-29T00:59:09.481Z,18.70
2023-01-29T01:02:50.169Z,15.15
2023-01-29T01:06:12.226Z,20.58
2023-01-29T01:09:55.915Z,18.90
2023-01-29T01:13:17.848Z,13.38
2023-01-29T01:16:39.822Z,12.65
2023-01-29T01:20:02.491Z,15.13
2023-01-29T01:23:24.471Z,18.95
2023-01-29T01:26:46.543Z,17.98
2023-01-29T01:30:14.426Z,21.20
2023-01-29T01:33:37.561Z,18.13
2023-01-29T01:36:59.658Z,18.73
2023-01-29T01:40:24.076Z,20.20
2023-01-29T01:44:01.735Z,18.48
2023-01-29T01:47:41.833Z,18.48
2023-01-29T01:51:06.535Z,13.48
2023-01-29T01:54:32.161Z,15.55
2023-01-29T01:58:02.214Z,17.45
2023-01-29T02:01:28.067Z,11.93
2023-01-29T02:05:09.322Z,16.85
2023-01-29T02:09:08.731Z,24.90
2023-01-29T02:12:32.085Z,17.33
2023-01-29T02:15:54.068Z,13.05
2023-01-29T02:19:45.803Z,20.63
2023-01-29T02:23:15.982Z,18.92
2023-01-29T02:26:56.245Z,13.80
2023-01-29T02:30:28.790Z,18.80
2023-01-29T02:34:21.900Z,15.55
2023-01-29T02:37:59.503Z,14.45
2023-01-29T02:41:31.924Z,17.80
2023-01-29T02:45:02.625Z,15.95
2023-01-29T02:48:28.384Z,14.85
2023-01-29T02:52:01.663Z,19.45
2023-01-29T02:55:31.184Z,14.82
2023-01-29T02:59:02.239Z,13.25
2023-01-29T03:02:50.565Z,13.43
2023-01-29T03:06:22.489Z,9.43
2023-01-29T03:09:51.972Z,11.95
2023-01-29T03:13:26.679Z,14.50
2023-01-29T03:16:52.069Z,15.80
2023-01-29T03:20:21.327Z,10.10
2023-01-29T03:24:01.827Z,12.55
2023-01-29T03:27:46.696Z,20.02
2023-01-29T03:31:31.604Z,17.05
2023-01-29T03:35:02.103Z,15.18
2023-01-29T03:38:29.587Z,17.38
2023-01-29T03:42:02.642Z,15.68
2023-01-29T03:45:31.572Z,20.15
2023-01-29T03:49:03.202Z,12.82
2023-01-29T03:52:28.243Z,17.77
2023-01-29T03:56:22.591Z,21.30
2023-01-29T04:00:12.949Z,18.58
2023-01-29T04:04:04.934Z,15.85
2023-01-29T04:07:33.469Z,15.55
2023-01-29T04:11:02.778Z,15.95
2023-01-29T04:14:25.996Z,13.55
2023-01-29T04:17:52.805Z,17.77
2023-01-29T04:21:25.940Z,15.15
2023-01-29T04:24:49.564Z,15.73
2023-01-29T04:28:28.349Z,16.50
2023-01-29T04:32:14.512Z,15.50
2023-01-29T04:36:07.208Z,13.35
2023-01-29T04:39:45.577Z,20.08
2023-01-29T04:43:15.058Z,17.83
2023-01-29T04:47:04.561Z,18.38
2023-01-29T04:50:47.309Z,17.77
2023-01-29T04:54:18.453Z,20.75
2023-01-29T04:57:46.532Z,11.13
2023-01-29T05:01:14.297Z,16.20
2023-01-29T05:04:39.695Z,19.30
2023-01-29T05:08:03.140Z,18.85
2023-01-29T05:11:25.969Z,14.68
2023-01-29T05:14:49.406Z,15.45
2023-01-29T05:18:11.503Z,12.32
2023-01-29T05:21:33.472Z,20.00
2023-01-29T05:24:55.420Z,16.02
2023-01-29T05:28:17.928Z,15.05
2023-01-29T05:31:39.901Z,12.88
2023-01-29T05:35:02.024Z,17.60
2023-01-29T05:38:24.200Z,12.70
2023-01-29T05:41:46.185Z,17.25
2023-01-29T05:45:08.947Z,19.73
2023-01-29T05:48:32.169Z,12.73
2023-01-29T05:51:54.237Z,15.45
2023-01-29T05:55:16.309Z,17.05
2023-01-29T05:58:38.339Z,15.80
2023-01-29T06:02:00.312Z,17.27
2023-01-29T06:05:22.328Z,11.70
2023-01-29T06:08:44.269Z,15.23
2023-01-29T06:12:07.924Z,19.00
2023-01-29T06:15:29.868Z,18.38
2023-01-29T06:18:51.795Z,19.92
2023-01-29T06:22:13.951Z,18.20
2023-01-29T06:25:35.935Z,19.25
2023-01-29T06:28:57.860Z,12.85
2023-01-29T06:32:19.901Z,13.32
2023-01-29T06:35:41.913Z,18.60
2023-01-29T06:39:04.218Z,17.10
2023-01-29T06:42:28.100Z,9.63
2023-01-29T06:45:50.917Z,13.07
2023-01-29T06:49:13.007Z,17.50
2023-01-29T06:52:34.942Z,13.38
2023-01-29T06:55:56.890Z,19.50
2023-01-29T06:59:18.837Z,19.10
2023-01-29T07:02:40.754Z,19.20
2023-01-29T07:06:03.186Z,21.63
2023-01-29T07:09:25.245Z,30.50
2023-01-29T07:12:47.253Z,24.60
2023-01-29T07:16:10.244Z,11.57
2023-01-29T07:19:32.188Z,17.70
2023-01-29T07:22:54.513Z,15.00
2023-01-29T07:26:17.015Z,13.23
2023-01-29T07:29:38.936Z,19.23
2023-01-29T07:33:07.437Z,16.52
2023-01-29T07:36:29.882Z,14.82
2023-01-29T07:39:51.925Z,16.10
2023-01-29T07:43:13.982Z,15.85
2023-01-29T07:46:35.960Z,19.42
2023-01-29T07:49:57.953Z,11.18
2023-01-29T07:53:19.911Z,16.77
2023-01-29T07:56:41.986Z,13.65
2023-01-29T08:00:04.326Z,28.33
2023-01-29T08:03:34.231Z,17.45
2023-01-29T08:06:56.257Z,19.20
2023-01-29T08:10:18.707Z,16.90
2023-01-29T08:13:40.918Z,30.88
2023-01-29T08:17:02.820Z,29.50
2023-01-29T08:20:25.183Z,51.10
2023-01-29T08:23:47.112Z,41.60
2023-01-29T08:27:09.216Z,27.65
2023-01-29T08:30:33.496Z,27.77
2023-01-29T08:33:55.762Z,19.27
2023-01-29T08:37:17.705Z,17.13
2023-01-29T08:40:39.647Z,13.65
2023-01-29T08:44:04.368Z,13.50
2023-01-29T08:47:28.052Z,22.38
2023-01-29T08:50:51.430Z,24.63
2023-01-29T08:54:13.370Z,21.58
2023-01-29T08:57:35.413Z,14.55
2023-01-29T09:00:57.449Z,13.43
2023-01-29T09:04:19.389Z,25.55
2023-01-29T09:07:41.356Z,12.30
2023-01-29T09:11:03.828Z,14.57
2023-01-29T09:14:25.815Z,16.75
2023-01-29T09:17:49.486Z,15.10
2023-01-29T09:21:11.681Z,14.73
2023-01-29T09:24:35.068Z,17.15
2023-01-29T09:27:57.000Z,12.35
2023-01-29T09:31:19.279Z,14.98
2023-01-29T09:34:41.344Z,16.02
2023-01-29T09:38:03.337Z,9.93
2023-01-29T09:41:51.612Z,10.07
2023-01-29T09:45:21.062Z,12.40
2023-01-29T09:48:44.283Z,9.47
2023-01-29T09:52:14.502Z,13.07
2023-01-29T09:55:59.850Z,8.80
2023-01-29T09:59:23.860Z,11.20
2023-01-29T10:03:21.421Z,13.35
2023-01-29T10:06:56.653Z,13.60
2023-01-29T10:10:43.204Z,15.40
2023-01-29T10:14:05.155Z,9.75
2023-01-29T10:17:49.503Z,13.50
2023-01-29T10:21:30.247Z,11.70
2023-01-29T10:24:57.594Z,13.37
2023-01-29T10:28:43.251Z,11.68
2023-01-29T10:32:06.026Z,15.57
2023-01-29T10:35:39.635Z,11.63
2023-01-29T10:39:01.762Z,15.23
2023-01-29T10:42:31.047Z,11.48
2023-01-29T10:46:18.748Z,11.53
2023-01-29T10:49:40.670Z,13.80
2023-01-29T10:53:05.728Z,14.98
2023-01-29T10:56:57.687Z,12.95
2023-01-29T11:00:27.317Z,12.25
2023-01-29T11:04:02.261Z,13.80
2023-01-29T11:07:25.110Z,13.80
2023-01-29T11:11:01.835Z,10.52
2023-01-29T11:15:12.656Z,12.23
2023-01-29T11:18:58.852Z,11.77
2023-01-29T11:22:22.745Z,11.07
2023-01-29T11:25:53.268Z,10.15
2023-01-29T11:29:48.103Z,12.18
2023-01-29T11:33:22.026Z,12.85
2023-01-29T11:36:45.040Z,12.23
2023-01-29T11:40:19.130Z,10.73
2023-01-29T11:43:41.307Z,12.52
2023-01-29T11:47:26.156Z,12.65
2023-01-29T11:50:58.138Z,14.85
2023-01-29T11:54:22.935Z,13.98
2023-01-29T11:57:54.209Z,14.50
2023-01-29T12:01:23.473Z,14.18
2023-01-29T12:04:45.886Z,14.67
2023-01-29T12:08:18.334Z,17.55
2023-01-29T12:11:40.305Z,10.32
2023-01-29T12:15:09.182Z,11.27
2023-01-29T12:18:41.966Z,12.88
2023-01-29T12:22:06.170Z,15.82
2023-01-29T12:25:49.941Z,9.68
2023-01-29T12:29:31.036Z,11.98
2023-01-29T12:33:18.696Z,10.35
2023-01-29T12:37:32.802Z,12.23
2023-01-29T12:41:41.620Z,14.63
2023-01-29T12:45:10.845Z,14.02
2023-01-29T12:48:39.617Z,12.93
2023-01-29T12:52:07.401Z,14.98
2023-01-29T12:55:37.346Z,16.33
2023-01-29T12:59:04.761Z,13.32
2023-01-29T13:02:39.985Z,15.02
2023-01-29T13:06:15.207Z,19.08
2023-01-29T13:09:39.709Z,19.38
2023-01-29T13:13:23.657Z,19.55
2023-01-29T13:16:49.528Z,23.63
2023-01-29T13:20:28.000Z,16.80
2023-01-29T13:24:00.264Z,16.40
2023-01-29T13:27:34.243Z,14.30
2023-01-29T13:31:17.287Z,11.93
2023-01-29T13:34:48.224Z,12.82
2023-01-29T13:38:33.374Z,13.98
2023-01-29T13:41:57.882Z,12.02
2023-01-29T13:45:35.198Z,14.00
2023-01-29T13:49:00.941Z,16.92
2023-01-29T13:52:44.710Z,12.73
2023-01-29T13:56:34.495Z,16.23
2023-01-29T13:59:58.832Z,12.70
2023-01-29T14:03:26.899Z,14.88
2023-01-29T14:07:03.029Z,12.48
2023-01-29T14:10:30.411Z,15.75
2023-01-29T14:13:52.485Z,15.40
2023-01-29T14:17:16.198Z,18.83
2023-01-29T14:20:46.019Z,17.58
2023-01-29T14:27:32.757Z,23.77
2023-01-29T14:30:55.579Z,19.02
2023-01-29T14:34:20.692Z,18.10
2023-01-29T14:37:48.434Z,18.58
2023-01-29T14:41:26.735Z,19.55
2023-01-29T14:45:15.186Z,19.10
2023-01-29T14:48:48.777Z,19.08
2023-01-29T14:52:13.201Z,26.00
2023-01-29T14:55:44.150Z,26.17
2023-01-29T14:59:13.817Z,26.55
2023-01-29T15:02:44.004Z,20.67
2023-01-29T15:06:08.065Z,23.63
2023-01-29T15:09:54.181Z,21.60
2023-01-29T15:13:33.610Z,16.38
2023-01-29T15:17:19.703Z,15.23
2023-01-29T15:20:43.546Z,20.92
2023-01-29T15:24:06.872Z,20.33
2023-01-29T15:27:29.177Z,20.77
2023-01-29T15:30:56.145Z,23.38
2023-01-29T15:34:18.669Z,21.20
2023-01-29T15:37:40.589Z,23.38
2023-01-29T15:41:18.421Z,24.48
2023-01-29T15:44:46.203Z,17.77
2023-01-29T15:48:15.952Z,19.42
2023-01-29T15:51:39.529Z,19.45
2023-01-29T15:55:07.301Z,20.58
2023-01-29T15:58:32.172Z,15.45
2023-01-29T16:01:54.813Z,21.38
2023-01-29T16:05:22.008Z,26.60
2023-01-29T16:08:48.548Z,19.48
2023-01-29T16:12:12.670Z,20.60
2023-01-29T16:15:40.342Z,21.00
2023-01-29T16:19:13.285Z,19.33
2023-01-29T16:22:37.791Z,27.02
2023-01-29T16:26:07.050Z,22.25
2023-01-29T16:29:32.242Z,24.10
2023-01-29T16:33:01.799Z,24.63
2023-01-29T16:36:28.128Z,20.70
2023-01-29T16:39:52.779Z,23.40
2023-01-29T16:43:17.568Z,25.77
2023-01-29T16:46:46.794Z,25.45
2023-01-29T16:50:38.286Z,32.63
2023-01-29T16:54:07.635Z,22.13
2023-01-29T16:57:33.731Z,18.77
2023-01-29T17:01:03.533Z,24.83
2023-01-29T17:04:25.724Z,22.00
2023-01-29T17:07:48.115Z,22.02
2023-01-29T17:11:12.407Z,21.05
2023-01-29T17:14:36.567Z,21.75
2023-01-29T17:17:58.512Z,27.85
2023-01-29T17:21:20.501Z,24.08
2023-01-29T17:24:43.165Z,20.10
2023-01-29T17:28:05.342Z,23.63
2023-01-29T17:31:27.823Z,20.58
2023-01-29T17:34:49.929Z,26.58
2023-01-29T17:38:25.581Z,22.30
2023-01-29T17:41:54.865Z,24.15
2023-01-29T17:45:17.321Z,22.20
2023-01-29T17:48:39.525Z,23.35
2023-01-29T17:52:01.900Z,23.77
2023-01-29T17:55:23.953Z,23.15
2023-01-29T17:58:45.979Z,26.15
2023-01-29T18:02:08.780Z,30.20
2023-01-29T18:05:50.810Z,25.33
2023-01-29T18:09:14.223Z,25.40
2023-01-29T18:12:36.174Z,25.80
2023-01-29T18:15:58.173Z,28.30
2023-01-29T18:19:23.113Z,26.40
2023-01-29T18:22:45.452Z,31.92
2023-01-29T18:26:07.790Z,23.75
2023-01-29T18:29:30.515Z,31.15
2023-01-29T18:32:53.350Z,29.25
2023-01-29T18:36:15.542Z,26.27
2023-01-29T18:39:37.575Z,23.75
2023-01-29T18:43:00.923Z,24.90
2023-01-29T18:46:24.386Z,28.23
2023-01-29T18:49:46.414Z,28.73
2023-01-29T18:53:08.913Z,26.48
2023-01-29T18:56:30.911Z,29.33
2023-01-29T18:59:52.994Z,26.75
2023-01-29T19:03:15.683Z,33.22
2023-01-29T19:06:38.038Z,30.60
2023-01-29T19:10:02.155Z,30.77
2023-01-29T19:13:24.152Z,28.60
2023-01-29T19:16:46.564Z,25.38
2023-01-29T19:20:09.711Z,29.20
2023-01-29T19:23:31.889Z,33.58
2023-01-29T19:26:54.665Z,38.17
2023-01-29T19:30:16.989Z,32.92
2023-01-29T19:33:39.405Z,31.02
2023-01-29T19:37:01.361Z,46.60
2023-01-29T19:40:24.351Z,39.55
2023-01-29T19:43:48.172Z,43.15
2023-01-29T19:47:10.144Z,43.45
2023-01-29T19:50:32.091Z,39.47
2023-01-29T19:53:54.143Z,40.65
2023-01-29T19:57:16.140Z,36.58
2023-01-29T20:00:38.167Z,31.52
2023-01-29T20:04:00.500Z,32.22
2023-01-29T20:07:22.922Z,32.00
2023-01-29T20:10:46.155Z,31.77
2023-01-29T20:14:08.171Z,32.40
2023-01-29T20:17:30.120Z,34.38
2023-01-29T20:20:53.484Z,32.03
2023-01-29T20:24:15.760Z,35.75
2023-01-29T20:27:37.706Z,33.15
2023-01-29T20:30:59.751Z,31.05
2023-01-29T20:34:22.483Z,29.25
2023-01-29T20:37:44.435Z,30.00
2023-01-29T20:41:15.852Z,41.53
2023-01-29T20:44:37.783Z,29.02
2023-01-29T20:47:59.854Z,26.83
2023-01-29T20:51:22.186Z,33.47
2023-01-29T20:54:44.297Z,37.00
2023-01-29T20:58:06.843Z,37.38
2023-01-29T21:01:29.352Z,38.22
2023-01-29T21:04:51.306Z,37.35
2023-01-29T21:08:13.346Z,39.90
2023-01-29T21:11:35.508Z,42.97
2023-01-29T21:14:57.442Z,41.55
2023-01-29T21:18:20.160Z,29.17
2023-01-29T21:21:42.114Z,32.30
2023-01-29T21:25:04.330Z,38.00
2023-01-29T21:28:26.300Z,38.90
2023-01-29T21:31:48.386Z,28.95
2023-01-29T21:35:10.772Z,37.53
2023-01-29T21:38:33.289Z,36.58
2023-01-29T21:42:13.567Z,34.40
2023-01-29T21:48:58.742Z,34.58
2023-01-29T21:52:20.723Z,34.05
2023-01-29T21:55:42.799Z,31.65
2023-01-29T21:59:04.764Z,34.75
2023-01-29T22:02:30.865Z,36.65
2023-01-29T22:05:53.393Z,35.28
2023-01-29T22:09:16.064Z,36.80
2023-01-29T22:12:38.025Z,32.65
2023-01-29T22:16:00.177Z,38.85
2023-01-29T22:19:22.194Z,33.53
2023-01-29T22:22:44.403Z,32.65
2023-01-29T22:26:08.939Z,40.20
2023-01-29T22:29:31.053Z,29.40
2023-01-29T22:32:53.060Z,30.33
2023-01-29T22:36:15.192Z,31.80
2023-01-29T22:39:37.180Z,39.38
2023-01-29T22:42:59.125Z,35.05
2023-01-29T22:46:21.122Z,32.95
2023-01-29T22:49:45.658Z,37.83
2023-01-29T22:53:08.723Z,38.88
2023-01-29T22:56:31.289Z,35.58
2023-01-29T22:59:53.407Z,30.73
2023-01-29T23:03:15.442Z,47.28
2023-01-29T23:06:37.459Z,29.02
2023-01-29T23:09:59.413Z,32.13
2023-01-29T23:13:21.371Z,41.00
2023-01-29T23:16:43.316Z,33.35
2023-01-29T23:20:05.776Z,35.67
2023-01-29T23:23:32.101Z,29.27
2023-01-29T23:27:12.827Z,25.00
2023-01-29T23:30:34.807Z,35.70
2023-01-29T23:33:56.977Z,34.95
2023-01-29T23:37:18.912Z,30.45
2023-01-29T23:40:40.860Z,31.60
2023-01-29T23:44:02.881Z,37.10
2023-01-29T23:47:24.822Z,32.40
2023-01-29T23:50:47.534Z,28.95
2023-01-29T23:54:09.460Z,29.08
2023-01-29T23:57:31.391Z,29.88
